Andersen AFB, Guam
Current Conditions -  °F | °C
As of 8:18 AM on Tuesday 25 Nov 2014 (Local Time) from PGUA Reporting Station
Scattered Clouds Scattered Clouds  
Wind Chill: 82°   Ceiling: Unl
Heat Index: 89°   Visibility: 10mi
Dew Point: 75°   Wind: 15mph
Humidity: 79%   Direction: 80°E
Pressure: 29.87"   Gusts: NA
Location:  13.58°N, 144.92°E
Report Text: PGUA 242218Z AUTO 08013KT 10SM SCT016 SCT025 28/24 A2987 RMK AO2 $
Loading
Personal Weather Stations






























Interactive Weather Map New forecast layout! Learn more

10-Day Weather Forecast

Advertisements
Track Severe Weather on mobile